createdAt,value
2023-04-18T00:00:10.288Z,13.80
2023-04-18T00:02:41.342Z,13.90
2023-04-18T00:05:08.794Z,13.90
2023-04-18T00:07:36.016Z,13.90
2023-04-18T00:10:04.239Z,13.90
2023-04-18T00:19:56.348Z,13.90
2023-04-18T00:24:54.301Z,13.90
2023-04-18T00:27:22.031Z,13.90
2023-04-18T00:32:17.427Z,13.90
2023-04-18T00:34:45.233Z,13.90
2023-04-18T00:42:06.767Z,13.90
2023-04-18T00:47:01.036Z,13.90
2023-04-18T00:49:28.082Z,13.90
2023-04-18T00:51:57.925Z,13.90
2023-04-18T00:59:21.047Z,13.90
2023-04-18T01:09:14.060Z,13.80
2023-04-18T01:14:09.308Z,13.80
2023-04-18T01:16:37.205Z,13.80
2023-04-18T01:19:05.121Z,13.80
2023-04-18T01:21:37.688Z,13.80
2023-04-18T01:24:08.677Z,13.70
2023-04-18T01:31:39.340Z,13.70
2023-04-18T01:34:07.922Z,13.60
2023-04-18T01:36:38.225Z,13.60
2023-04-18T01:41:32.898Z,13.60
2023-04-18T01:44:00.574Z,13.60
2023-04-18T01:46:28.154Z,13.50
2023-04-18T01:51:23.207Z,13.50
2023-04-18T01:53:50.536Z,13.40
2023-04-18T02:06:08.230Z,13.30
2023-04-18T02:13:32.949Z,13.20
2023-04-18T02:18:27.439Z,13.10
2023-04-18T02:35:40.741Z,12.90
2023-04-18T02:40:36.178Z,12.80
2023-04-18T02:58:00.399Z,12.60
2023-04-18T03:00:56.210Z,12.60
2023-04-18T03:08:55.508Z,12.50
2023-04-18T03:13:50.734Z,12.40
2023-04-18T03:18:45.726Z,12.40
2023-04-18T03:23:42.625Z,12.30
2023-04-18T03:33:39.312Z,12.20
2023-04-18T03:36:11.231Z,12.20
2023-04-18T03:38:40.537Z,12.10
2023-04-18T03:41:07.825Z,12.10
2023-04-18T03:51:06.800Z,11.90
2023-04-18T03:53:33.915Z,11.90
2023-04-18T03:56:00.755Z,11.80
2023-04-18T03:58:42.331Z,11.70
2023-04-18T04:06:06.511Z,11.60
2023-04-18T04:08:34.362Z,11.60
2023-04-18T04:29:07.284Z,11.40
2023-04-18T04:36:33.303Z,11.40
2023-04-18T04:41:53.468Z,11.40
2023-04-18T04:49:28.120Z,11.50
2023-04-18T05:06:44.896Z,11.50
2023-04-18T05:11:39.498Z,11.50
2023-04-18T05:26:24.348Z,11.50
2023-04-18T05:28:51.440Z,11.50
2023-04-18T05:48:29.337Z,11.70
2023-04-18T05:53:23.729Z,11.70
2023-04-18T05:55:50.689Z,11.80
2023-04-18T06:03:13.116Z,12.00
2023-04-18T06:05:41.125Z,12.10
2023-04-18T06:15:35.101Z,12.30
2023-04-18T06:40:12.386Z,12.70
2023-04-18T06:42:39.259Z,12.70
2023-04-18T07:09:40.348Z,13.10
2023-04-18T07:19:29.301Z,13.20
2023-04-18T07:26:53.786Z,13.30
2023-04-18T07:46:36.847Z,13.30
2023-04-18T07:51:31.848Z,13.30
2023-04-18T07:53:59.653Z,13.30
2023-04-18T07:56:27.142Z,13.30
2023-04-18T08:01:24.597Z,13.40
2023-04-18T08:06:23.753Z,13.40
2023-04-18T08:11:18.114Z,13.50
2023-04-18T08:16:13.149Z,13.50
2023-04-18T08:18:41.216Z,13.60
2023-04-18T08:28:29.882Z,13.70
2023-04-18T08:38:19.544Z,13.90
2023-04-18T08:40:47.266Z,13.90
2023-04-18T08:43:15.367Z,13.90
2023-04-18T08:45:43.632Z,14.00
2023-04-18T08:48:16.761Z,14.10
2023-04-18T08:50:45.028Z,14.10
2023-04-18T09:12:55.356Z,14.70
2023-04-18T09:15:26.747Z,14.70
2023-04-18T09:17:56.368Z,14.90
2023-04-18T09:20:34.525Z,14.90
2023-04-18T09:23:10.492Z,15.00
2023-04-18T09:28:28.930Z,15.00
2023-04-18T09:30:57.734Z,15.00
2023-04-18T09:33:29.618Z,14.90
2023-04-18T09:36:16.236Z,15.00
2023-04-18T09:38:43.180Z,15.00
2023-04-18T09:41:11.631Z,15.00
2023-04-18T09:46:07.314Z,15.10
2023-04-18T09:51:07.499Z,15.10
2023-04-18T09:53:44.457Z,15.20
2023-04-18T09:56:27.225Z,15.20
2023-04-18T09:59:06.177Z,15.30
2023-04-18T10:01:34.712Z,15.30
2023-04-18T10:04:04.398Z,15.40
2023-04-18T10:06:34.424Z,15.50
2023-04-18T10:09:04.270Z,15.50
2023-04-18T10:11:31.888Z,15.60
2023-04-18T10:14:03.525Z,15.70
2023-04-18T10:19:23.758Z,15.80
2023-04-18T10:21:58.428Z,15.80
2023-04-18T10:24:53.725Z,15.90
2023-04-18T10:27:49.044Z,15.90
2023-04-18T10:30:17.238Z,16.00
2023-04-18T10:32:48.892Z,16.00
2023-04-18T10:37:59.340Z,16.10
2023-04-18T10:40:34.273Z,16.10
2023-04-18T10:45:32.543Z,16.20
2023-04-18T10:48:39.418Z,16.30
2023-04-18T10:51:21.979Z,16.40
2023-04-18T10:53:53.970Z,16.50
2023-04-18T10:56:20.927Z,16.60
2023-04-18T10:58:51.538Z,16.60
2023-04-18T11:01:32.432Z,16.70
2023-04-18T11:04:00.343Z,15.10
2023-04-18T11:06:27.759Z,16.80
2023-04-18T11:09:12.430Z,16.90
2023-04-18T11:11:39.865Z,16.90
2023-04-18T11:14:06.765Z,16.90
2023-04-18T11:16:34.495Z,17.00
2023-04-18T11:19:17.166Z,17.10
2023-04-18T11:21:44.058Z,17.10
2023-04-18T11:24:11.020Z,17.20
2023-04-18T11:26:38.744Z,13.50
2023-04-18T11:29:06.585Z,17.30
2023-04-18T11:34:02.287Z,17.40
2023-04-18T11:36:29.186Z,17.40
2023-04-18T11:38:56.600Z,17.50
2023-04-18T11:41:23.476Z,17.50
2023-04-18T11:43:50.579Z,17.50
2023-04-18T11:46:17.551Z,17.60
2023-04-18T11:51:38.294Z,17.80
2023-04-18T11:54:05.458Z,17.80
2023-04-18T11:56:34.595Z,17.90
2023-04-18T11:59:09.506Z,18.10
2023-04-18T12:01:36.353Z,18.10
2023-04-18T12:04:05.435Z,18.20
2023-04-18T12:06:49.029Z,18.30
2023-04-18T12:09:17.198Z,18.40
2023-04-18T12:11:44.261Z,18.60
2023-04-18T12:14:21.887Z,18.60
2023-04-18T12:16:50.332Z,18.70
2023-04-18T12:19:17.321Z,18.80
2023-04-18T12:21:57.087Z,18.80
2023-04-18T12:24:25.154Z,24.00
2023-04-18T12:26:52.688Z,18.90
2023-04-18T12:29:19.632Z,18.90
2023-04-18T12:31:47.555Z,18.90
2023-04-18T12:34:14.764Z,18.90
2023-04-18T12:36:42.513Z,18.80
2023-04-18T12:39:10.139Z,18.80
2023-04-18T12:41:37.008Z,18.80
2023-04-18T12:44:04.090Z,18.80
2023-04-18T12:46:31.508Z,15.90
2023-04-18T12:48:58.524Z,18.70
2023-04-18T12:51:26.588Z,18.70
2023-04-18T12:53:53.565Z,18.70
2023-04-18T12:56:21.069Z,18.70
2023-04-18T12:58:47.885Z,18.90
2023-04-18T13:01:15.233Z,18.80
2023-04-18T13:03:42.198Z,17.60
2023-04-18T13:06:09.631Z,19.00
2023-04-18T13:08:37.544Z,19.30
2023-04-18T13:11:04.524Z,19.50
2023-04-18T13:13:31.883Z,19.70
2023-04-18T13:15:59.772Z,19.90
2023-04-18T13:20:53.934Z,20.10
2023-04-18T13:25:48.207Z,20.20
2023-04-18T13:33:10.622Z,20.30
2023-04-18T13:38:04.736Z,20.40
2023-04-18T13:47:54.837Z,21.00
2023-04-18T13:50:23.045Z,21.30
2023-04-18T13:52:51.878Z,21.60
2023-04-18T13:55:19.816Z,21.70
2023-04-18T13:57:46.716Z,22.00
2023-04-18T14:00:14.368Z,22.20
2023-04-18T14:02:41.600Z,22.50
2023-04-18T14:05:09.263Z,22.60
2023-04-18T14:07:38.227Z,22.70
2023-04-18T14:10:05.923Z,22.80
2023-04-18T14:12:32.749Z,22.70
2023-04-18T14:14:59.617Z,22.70
2023-04-18T14:17:26.476Z,22.50
2023-04-18T14:19:53.288Z,22.30
2023-04-18T14:22:20.102Z,22.30
2023-04-18T14:24:46.961Z,22.20
2023-04-18T14:27:13.797Z,22.30
2023-04-18T14:29:41.123Z,22.30
2023-04-18T14:32:08.039Z,22.50
2023-04-18T14:34:36.633Z,22.70
2023-04-18T14:37:04.381Z,23.20
2023-04-18T14:39:31.185Z,23.20
2023-04-18T14:41:58.025Z,23.50
2023-04-18T14:44:24.833Z,23.60
2023-04-18T14:46:51.683Z,23.80
2023-04-18T14:49:18.583Z,23.80
2023-04-18T14:51:45.503Z,23.80
2023-04-18T14:54:12.334Z,23.70
2023-04-18T14:56:39.233Z,23.60
2023-04-18T14:59:06.198Z,23.30
2023-04-18T15:01:33.101Z,23.20
2023-04-18T15:04:00.167Z,22.80
2023-04-18T15:06:27.310Z,22.60
2023-04-18T15:08:54.140Z,22.40
2023-04-18T15:11:21.020Z,22.20
2023-04-18T15:13:47.960Z,22.00
2023-04-18T15:16:14.897Z,21.70
2023-04-18T15:18:41.758Z,21.70
2023-04-18T15:21:08.634Z,21.50
2023-04-18T15:28:31.208Z,16.50
2023-04-18T15:30:58.583Z,21.40
2023-04-18T15:35:54.830Z,21.70
2023-04-18T15:38:22.139Z,21.90
2023-04-18T15:40:48.962Z,22.20
2023-04-18T15:43:17.285Z,22.20
2023-04-18T15:45:44.580Z,22.50
2023-04-18T15:48:13.242Z,22.80
2023-04-18T15:50:41.944Z,22.90
2023-04-18T15:53:09.071Z,23.00
2023-04-18T15:55:36.130Z,23.00
2023-04-18T15:58:02.976Z,23.00
2023-04-18T16:00:29.830Z,22.80
2023-04-18T16:02:56.728Z,22.80
2023-04-18T16:05:24.085Z,22.60
2023-04-18T16:07:52.377Z,22.50
2023-04-18T16:10:19.270Z,22.20
2023-04-18T16:12:46.181Z,22.10
2023-04-18T16:15:13.491Z,22.00
2023-04-18T16:17:40.461Z,22.00
2023-04-18T16:20:08.994Z,21.80
2023-04-18T16:22:36.547Z,21.80
2023-04-18T16:25:04.360Z,21.60
2023-04-18T16:27:31.231Z,17.40
2023-04-18T16:29:58.092Z,21.50
2023-04-18T16:34:52.332Z,21.40
2023-04-18T16:37:19.212Z,21.40
2023-04-18T16:39:46.052Z,21.40
2023-04-18T16:42:15.369Z,21.40
2023-04-18T16:44:42.698Z,21.50
2023-04-18T16:47:09.641Z,21.50
2023-04-18T16:52:04.456Z,21.70
2023-04-18T16:54:31.425Z,21.70
2023-04-18T16:56:58.322Z,21.90
2023-04-18T16:59:25.230Z,21.80
2023-04-18T17:01:52.078Z,21.80
2023-04-18T17:04:19.535Z,21.80
2023-04-18T17:06:46.692Z,21.70
2023-04-18T17:11:42.114Z,21.60
2023-04-18T17:14:09.162Z,21.50
2023-04-18T17:16:38.560Z,21.30
2023-04-18T17:19:06.310Z,21.20
2023-04-18T17:21:34.635Z,21.00
2023-04-18T17:24:04.333Z,20.90
2023-04-18T17:33:54.503Z,20.30
2023-04-18T17:36:21.405Z,20.20
2023-04-18T17:38:51.229Z,20.10
2023-04-18T17:41:20.279Z,19.90
2023-04-18T17:43:47.717Z,19.80
2023-04-18T17:46:17.341Z,19.70
2023-04-18T17:51:11.512Z,19.40
2023-04-18T18:01:00.446Z,19.00
2023-04-18T18:03:27.655Z,19.00
2023-04-18T18:05:57.441Z,18.90
2023-04-18T18:08:24.506Z,18.90
2023-04-18T18:10:51.369Z,18.80
2023-04-18T18:13:18.187Z,18.70
2023-04-18T18:15:45.102Z,18.60
2023-04-18T18:18:26.334Z,18.50
2023-04-18T18:20:53.152Z,18.50
2023-04-18T18:23:19.926Z,18.40
2023-04-18T18:25:46.765Z,18.40
2023-04-18T18:28:13.710Z,18.30
2023-04-18T18:30:40.569Z,18.20
2023-04-18T18:33:07.471Z,18.10
2023-04-18T18:35:35.026Z,18.10
2023-04-18T18:38:01.978Z,18.00
2023-04-18T18:40:29.086Z,18.00
2023-04-18T18:42:56.843Z,17.90
2023-04-18T18:45:23.842Z,17.90
2023-04-18T18:47:51.129Z,17.80
2023-04-18T18:50:18.348Z,17.70
2023-04-18T18:52:45.456Z,17.80
2023-04-18T18:55:12.479Z,17.70
2023-04-18T18:57:39.688Z,17.60
2023-04-18T19:00:11.194Z,17.60
2023-04-18T19:02:39.645Z,17.60
2023-04-18T19:05:07.168Z,17.60
2023-04-18T19:10:01.856Z,17.50
2023-04-18T19:12:29.323Z,17.50
2023-04-18T19:14:56.400Z,17.50
2023-04-18T19:19:52.981Z,17.50
2023-04-18T19:22:19.872Z,17.50
2023-04-18T19:24:47.174Z,17.40
2023-04-18T19:27:14.189Z,17.40
2023-04-18T19:29:41.253Z,17.40
2023-04-18T19:32:08.803Z,17.30
2023-04-18T19:34:36.401Z,17.30
2023-04-18T19:37:03.771Z,17.20
2023-04-18T19:39:30.603Z,17.20
2023-04-18T19:44:24.706Z,17.20
2023-04-18T19:46:51.600Z,17.10
2023-04-18T19:49:18.955Z,17.10
2023-04-18T19:51:45.912Z,17.10
2023-04-18T19:54:13.429Z,17.00
2023-04-18T19:56:40.922Z,17.00
2023-04-18T19:59:07.931Z,17.00
2023-04-18T20:01:35.241Z,16.90
2023-04-18T20:04:02.284Z,16.90
2023-04-18T20:08:56.807Z,16.80
2023-04-18T20:11:24.291Z,16.70
2023-04-18T20:13:55.968Z,16.80
2023-04-18T20:16:23.735Z,16.70
2023-04-18T20:18:51.942Z,16.70
2023-04-18T20:21:20.348Z,16.70
2023-04-18T20:23:47.282Z,16.70
2023-04-18T20:28:41.421Z,16.70
2023-04-18T20:31:08.399Z,16.70
2023-04-18T20:33:36.505Z,16.70
2023-04-18T20:36:04.594Z,16.70
2023-04-18T20:38:31.434Z,16.60
2023-04-18T20:43:26.036Z,16.60
2023-04-18T20:48:25.590Z,16.60
2023-04-18T20:50:52.654Z,16.60
2023-04-18T20:53:21.085Z,16.60
2023-04-18T20:55:48.840Z,16.60
2023-04-18T20:58:16.216Z,16.60
2023-04-18T21:03:14.459Z,16.60
2023-04-18T21:05:45.599Z,16.60
2023-04-18T21:08:13.011Z,16.60
2023-04-18T21:10:39.975Z,16.50
2023-04-18T21:13:06.955Z,16.50
2023-04-18T21:15:35.569Z,16.50
2023-04-18T21:18:04.957Z,16.50
2023-04-18T21:27:56.208Z,16.50
2023-04-18T21:32:51.604Z,16.50
2023-04-18T21:42:44.606Z,16.50
2023-04-18T21:45:11.954Z,16.40
2023-04-18T21:52:34.452Z,16.50
2023-04-18T21:59:57.895Z,16.50
2023-04-18T22:02:25.950Z,16.50
2023-04-18T22:07:20.145Z,16.50
2023-04-18T22:09:47.020Z,16.50
2023-04-18T22:12:14.369Z,16.50
2023-04-18T22:14:42.477Z,16.50
2023-04-18T22:22:04.066Z,16.40
2023-04-18T22:24:30.849Z,16.40
2023-04-18T22:29:24.945Z,16.40
2023-04-18T22:34:18.949Z,16.30
2023-04-18T22:36:45.814Z,16.30
2023-04-18T22:41:39.908Z,16.30
2023-04-18T22:44:06.791Z,16.30
2023-04-18T22:49:01.119Z,16.20
2023-04-18T22:51:28.738Z,16.30
2023-04-18T22:53:56.536Z,16.20
2023-04-18T23:01:18.537Z,16.30
2023-04-18T23:06:13.370Z,16.20
2023-04-18T23:11:07.503Z,16.20
2023-04-18T23:18:30.135Z,16.20
2023-04-18T23:20:57.251Z,16.20
2023-04-18T23:23:24.096Z,16.20
2023-04-18T23:25:51.076Z,16.10
2023-04-18T23:28:18.339Z,16.10
2023-04-18T23:30:45.211Z,16.10
2023-04-18T23:38:06.606Z,16.00
2023-04-18T23:40:33.398Z,16.00
2023-04-18T23:43:01.094Z,16.00
2023-04-18T23:55:20.101Z,15.90
2023-04-18T23:57:46.916Z,15.90
